GW6394 Weather Reports


time (UTC)temp
C
wind
direction
speed
KPH
gust
KPH
rain 1hr
cm
rain 24hr
cm
rain mn
cm
humidity
%
barometer
mb
20260504151007 15 157 1.6 6.4 0.00 0.00 0.00 40 1011.8
20260504150510 15 150 3.2 11.3 0.00 0.00 0.00 39 1011.9
20260504141009 12 142 3.2 9.7 0.00 0.00 0.00 42 1012.3
20260504140507 12 203 3.2 9.7 0.00 0.00 0.00 41 1012.4
20260504130514 12 161 3.2 6.4 0.00 0.00 0.00 42 1012.5
20260504110508 6 224 1.6 3.2 0.00 0.00 0.00 59 1012.4
20260504100507 4 232 1.6 4.8 0.00 0.00 0.00 66 1012.2
20260504081520 5 209 1.6 4.8 0.00 0.00 0.00 65 1012.4
20260504081007 5 231 1.6 4.8 0.00 0.00 0.00 65 1012.4
20260504080512 5 240 1.6 4.8 0.00 0.00 0.00 64 1012.4
20260504050505 5 216 1.6 6.4 0.00 0.00 0.00 63 1012.2
20260504050010 5 269 1.6 6.4 0.00 0.00 0.00 63 1012.2
20260504045505 5 209 1.6 4.8 0.00 0.00 0.00 63 1012.2
20260504045010 5 198 1.6 4.8 0.00 0.00 0.00 62 1012.2
20260504044520 5 226 1.6 4.8 0.00 0.00 0.00 61 1012.1
20260504044006 5 213 1.6 4.8 0.00 0.00 0.00 61 1012.2
20260504043507 5 214 1.6 3.2 0.00 0.00 0.00 61 1012.1
20260504043020 5 243 1.6 3.2 0.00 0.00 0.00 60 1012.1
20260504042506 5 199 1.6 3.2 0.00 0.00 0.00 60 1012.0
20260504042004 5 227 1.6 3.2 0.00 0.00 0.00 60 1011.9
20260504041523 5 219 1.6 3.2 0.00 0.00 0.00 60 1011.9
20260504041008 5 210 1.6 4.8 0.00 0.00 0.00 61 1011.9
20260504040502 5 193 1.6 4.8 0.00 0.00 0.00 60 1011.8
20260504040007 5 208 1.6 3.2 0.00 0.00 0.00 60 1011.8
20260504035502 5 199 1.6 4.8 0.00 0.00 0.00 60 1011.8
20260504035003 5 229 1.6 4.8 0.00 0.00 0.00 59 1011.6
20260504034511 5 219 1.6 4.8 0.00 0.00 0.00 60 1011.7
20260504034003 5 224 1.6 3.2 0.00 0.00 0.00 59 1011.6
20260504033504 5 214 1.6 3.2 0.00 0.00 0.00 59 1011.7
20260504033016 6 216 1.6 3.2 0.00 0.00 0.00 60 1011.7
20260504032506 6 216 0.0 3.2 0.00 0.00 0.00 60 1011.7
20260504032007 6 215 1.6 3.2 0.00 0.00 0.00 59 1011.8
20260504031521 6 217 1.6 3.2 0.00 0.00 0.00 60 1011.8
20260504031007 6 225 0.0 3.2 0.00 0.00 0.00 60 1011.8
20260504030507 5 212 1.6 3.2 0.00 0.00 0.00 60 1011.7
20260504030034 5 221 1.6 3.2 0.00 0.00 0.00 60 1011.7
20260504025510 5 217 1.6 3.2 0.00 0.00 0.00 60 1011.7
20260504025012 6 226 1.6 3.2 0.00 0.00 0.00 60 1011.8
20260504024507 5 245 0.0 3.2 0.00 0.00 0.00 60 1011.8
20260504024002 5 244 0.0 3.2 0.00 0.00 0.00 60 1011.8
20260504023503 6 224 0.0 3.2 0.00 0.00 0.00 59 1011.8
20260504023012 6 226 0.0 3.2 0.00 0.00 0.00 59 1011.9
20260504022505 6 240 0.0 3.2 0.00 0.00 0.00 59 1011.9
20260504022006 6 220 0.0 3.2 0.00 0.00 0.00 58 1011.9
20260504021516 6 232 0.0 3.2 0.00 0.00 0.00 58 1011.9
20260504021007 6 220 0.0 3.2 0.00 0.00 0.00 57 1011.9
20260504020507 6 224 0.0 3.2 0.00 0.00 0.00 55 1011.9
20260504020032 6 250 0.0 3.2 0.00 0.00 0.00 56 1011.9
20260504015507 6 224 0.0 1.6 0.00 0.00 0.00 55 1011.9
20260504015006 6 229 0.0 3.2 0.00 0.00 0.00 54 1011.9
20260504014522 6 229 1.6 3.2 0.00 0.00 0.00 53 1011.8
20260504014009 6 256 0.0 3.2 0.00 0.00 0.00 54 1011.7
20260504013513 7 228 0.0 3.2 0.00 0.00 0.00 53 1011.7
20260504013033 7 245 0.0 3.2 0.00 0.00 0.00 53 1011.6
20260504012502 7 217 1.6 3.2 0.00 0.00 0.00 53 1011.7
20260504012003 7 212 0.0 3.2 0.00 0.00 0.00 54 1011.7
20260504011514 7 220 0.0 1.6 0.00 0.00 0.00 53 1011.7
20260504011002 7 233 0.0 1.6 0.00 0.00 0.00 52 1011.5
20260504010508 7 225 0.0 1.6 0.00 0.00 0.00 51 1011.5
20260504010018 7 217 0.0 1.6 0.00 0.00 0.00 51 1011.4
20260504005507 7 217 0.0 1.6 0.00 0.00 0.00 49 1011.4
20260504005006 8 218 0.0 1.6 0.00 0.00 0.00 48 1011.3
20260504004536 8 231 0.0 1.6 0.00 0.00 0.00 48 1011.3
20260504004006 8 217 0.0 3.2 0.00 0.00 0.00 47 1011.2
20260504003510 8 224 0.0 3.2 0.00 0.00 0.00 47 1011.2
20260504003023 8 224 0.0 4.8 0.00 0.00 0.00 46 1011.2
20260504002507 8 190 1.6 4.8 0.00 0.00 0.00 46 1011.2
20260504002007 8 207 0.0 3.2 0.00 0.00 0.00 47 1011.1
20260504001534 8 200 1.6 3.2 0.00 0.00 0.00 45 1011.1
20260504001003 8 150 0.0 1.6 0.00 0.00 0.00 46 1011.0
20260504000504 9 219 0.0 3.2 0.00 0.00 0.00 45 1011.1
20260504000012 9 226 0.0 3.2 0.00 0.00 0.00 44 1011.0
20260503235503 9 228 0.0 3.2 0.00 0.00 0.00 45 1011.0
20260503235004 9 231 0.0 3.2 0.00 0.00 0.00 43 1010.9
20260503234519 10 218 0.0 3.2 0.00 0.00 0.00 44 1010.7
20260503234006 10 208 0.0 6.4 0.00 0.00 0.00 42 1010.7
20260503233509 10 228 0.0 6.4 0.00 0.00 0.00 43 1010.6
20260503233024 10 226 0.0 6.4 0.00 0.00 0.00 40 1010.6
20260503232507 10 208 1.6 6.4 0.00 0.00 0.00 41 1010.6
20260503232011 10 274 1.6 6.4 0.00 0.00 0.00 40 1010.5
20260503231524 10 140 1.6 4.8 0.00 0.00 0.00 41 1010.5
20260503231008 10 206 0.0 4.8 0.00 0.00 0.00 42 1010.5
20260503230511 10 30 0.0 3.2 0.00 0.00 0.00 42 1010.5
20260503230028 10 229 0.0 4.8 0.00 0.00 0.00 41 1010.4
20260503225509 10 224 1.6 4.8 0.00 0.00 0.00 40 1010.4
20260503225003 10 250 1.6 8.0 0.00 0.00 0.00 40 1010.4
20260503224513 10 259 1.6 8.0 0.00 0.00 0.00 39 1010.4
20260503224004 10 118 0.0 3.2 0.00 0.00 0.00 42 1010.4
20260503223508 10 287 1.6 9.7 0.00 0.00 0.00 39 1010.4
20260503223020 10 222 1.6 9.7 0.00 0.00 0.00 39 1010.4
20260503222507 10 202 1.6 9.7 0.00 0.00 0.00 38 1010.4
20260503222010 11 222 1.6 4.8 0.00 0.00 0.00 39 1010.4
20260503221522 10 276 1.6 8.0 0.00 0.00 0.00 38 1010.3
20260503221009 10 346 1.6 8.0 0.00 0.00 0.00 38 1010.2
20260503220510 11 290 3.2 8.0 0.00 0.00 0.00 38 1010.4
20260503220031 10 287 1.6 8.0 0.00 0.00 0.00 38 1010.4
20260503215504 10 245 1.6 6.4 0.00 0.00 0.00 38 1010.4
20260503215005 10 46 1.6 12.9 0.00 0.00 0.00 38 1010.3
20260503214522 10 290 3.2 12.9 0.00 0.00 0.00 37 1010.2
20260503214006 10 75 1.6 8.0 0.00 0.00 0.00 37 1010.1
20260503213506 11 229 1.6 9.7 0.00 0.00 0.00 37 1010.1
20260503213028 11 62 3.2 9.7 0.00 0.00 0.00 35 1010.0
20260503212504 11 226 4.8 9.7 0.00 0.00 0.00 36 1009.8
20260503212015 11 221 1.6 6.4 0.00 0.00 0.00 36 1009.9
20260503211504 11 188 0.0 8.0 0.00 0.00 0.00 36 1009.8
20260503211003 11 237 1.6 8.0 0.00 0.00 0.00 36 1009.8
20260503210507 11 262 3.2 6.4 0.00 0.00 0.00 35 1009.9
20260503210006 11 271 0.0 16.1 0.00 0.00 0.00 34 1010.0
20260503205503 11 21 3.2 16.1 0.00 0.00 0.00 33 1009.9
20260503205007 11 223 3.2 16.1 0.00 0.00 0.00 32 1009.9
20260503204521 11 219 1.6 9.7 0.00 0.00 0.00 34 1010.0
20260503204004 11 228 3.2 9.7 0.00 0.00 0.00 33 1010.0
20260503203508 11 271 1.6 9.7 0.00 0.00 0.00 33 1010.0
20260503203013 11 206 1.6 9.7 0.00 0.00 0.00 34 1010.0
20260503202511 11 344 3.2 12.9 0.00 0.00 0.00 34 1010.1
20260503202006 10 279 4.8 12.9 0.00 0.00 0.00 32 1009.9
20260503201518 11 117 1.6 9.7 0.00 0.00 0.00 35 1010.0
20260503201004 11 201 1.6 9.7 0.00 0.00 0.00 34 1009.9
20260503200510 11 221 3.2 17.7 0.00 0.00 0.00 34 1009.9
20260503200004 11 240 3.2 17.7 0.00 0.00 0.00 33 1010.0
20260503195503 11 32 3.2 8.0 0.00 0.00 0.00 35 1010.1
20260503195003 11 244 1.6 11.3 0.00 0.00 0.00 36 1010.3
20260503194504 10 187 4.8 11.3 0.00 0.00 0.00 35 1010.4
20260503194003 10 257 1.6 9.7 0.00 0.00 0.00 37 1010.4
20260503193503 10 210 1.6 9.7 0.00 0.00 0.00 34 1010.6
20260503193008 10 245 3.2 9.7 0.00 0.00 0.00 35 1010.5
20260503192504 10 188 1.6 11.3 0.00 0.00 0.00 36 1010.6
20260503192003 10 198 3.2 11.3 0.00 0.00 0.00 35 1010.6
20260503191511 10 205 1.6 8.0 0.00 0.00 0.00 38 1010.7
20260503191005 10 293 1.6 12.9 0.00 0.00 0.00 37 1010.6
20260503190504 10 264 3.2 12.9 0.00 0.00 0.00 36 1010.6
20260503190017 10 226 3.2 9.7 0.00 0.00 0.00 37 1010.7
20260503185506 9 24 1.6 8.0 0.00 0.00 0.00 37 1010.8
20260503185005 10 204 1.6 12.9 0.00 0.00 0.00 36 1011.0
20260503184524 9 132 3.2 16.1 0.00 0.00 0.00 39 1010.9
20260503184001 10 259 4.8 16.1 0.00 0.00 0.00 39 1010.9
20260503183503 9 307 3.2 12.9 0.00 0.00 0.00 37 1011.1
20260503183008 10 57 1.6 9.7 0.00 0.00 0.00 38 1010.9
20260503182502 10 13 3.2 11.3 0.00 0.00 0.00 37 1011.0
20260503182002 9 342 3.2 19.3 0.00 0.00 0.00 36 1011.0
20260503181523 10 1 4.8 19.3 0.00 0.00 0.00 38 1011.0
20260503181004 10 317 3.2 16.1 0.00 0.00 0.00 38 1011.0
20260503180507 9 231 4.8 16.1 0.00 0.00 0.00 37 1010.9
20260503180027 10 345 3.2 16.1 0.00 0.00 0.00 38 1011.1
20260503175511 9 195 4.8 16.1 0.00 0.00 0.00 36 1011.1
20260503175005 10 204 3.2 12.9 0.00 0.00 0.00 39 1011.1
20260503174519 10 51 3.2 9.7 0.00 0.00 0.00 37 1011.1
20260503174008 9 212 3.2 12.9 0.00 0.00 0.00 37 1011.1
20260503173508 9 268 3.2 12.9 0.00 0.00 0.00 37 1011.3
20260503173020 9 224 4.8 11.3 0.00 0.00 0.00 38 1011.3
20260503172505 9 201 4.8 11.3 0.00 0.00 0.00 37 1011.3
20260503172002 9 116 1.6 11.3 0.00 0.00 0.00 37 1011.2
20260503171520 9 203 3.2 12.9 0.00 0.00 0.00 40 1011.4
20260503171003 8 223 4.8 12.9 0.00 0.00 0.00 39 1011.4
20260503170504 8 212 3.2 14.5 0.00 0.00 0.00 40 1011.3